createdAt,value
2023-09-09T00:00:40.196Z,4.70
2023-09-09T00:03:08.103Z,4.65
2023-09-09T00:05:34.971Z,5.32
2023-09-09T00:08:01.765Z,4.95
2023-09-09T00:10:28.720Z,4.38
2023-09-09T00:12:55.504Z,4.95
2023-09-09T00:15:22.388Z,4.20
2023-09-09T00:17:49.209Z,4.43
2023-09-09T00:20:15.959Z,4.70
2023-09-09T00:22:42.708Z,4.80
2023-09-09T00:25:09.686Z,4.40
2023-09-09T00:27:36.381Z,3.75
2023-09-09T00:30:03.962Z,4.32
2023-09-09T00:32:30.764Z,4.60
2023-09-09T00:34:57.536Z,4.68
2023-09-09T00:37:24.275Z,4.85
2023-09-09T00:39:51.127Z,5.00
2023-09-09T00:42:17.878Z,5.07
2023-09-09T00:44:44.714Z,5.10
2023-09-09T00:47:11.716Z,5.25
2023-09-09T00:49:39.069Z,5.07
2023-09-09T00:52:06.323Z,4.38
2023-09-09T00:54:34.083Z,4.68
2023-09-09T00:57:01.858Z,5.63
2023-09-09T00:59:28.679Z,4.93
2023-09-09T01:01:58.050Z,5.03
2023-09-09T01:04:25.080Z,4.50
2023-09-09T01:06:53.415Z,5.32
2023-09-09T01:09:20.173Z,4.57
2023-09-09T01:11:46.929Z,4.22
2023-09-09T01:14:14.333Z,5.00
2023-09-09T01:16:42.924Z,4.35
2023-09-09T01:19:13.932Z,4.75
2023-09-09T01:21:41.526Z,4.47
2023-09-09T01:24:08.171Z,4.63
2023-09-09T01:26:34.771Z,5.43
2023-09-09T01:29:01.347Z,4.72
2023-09-09T01:31:27.891Z,4.55
2023-09-09T01:33:57.837Z,4.43
2023-09-09T01:36:24.712Z,5.28
2023-09-09T01:38:51.684Z,4.03
2023-09-09T01:41:18.230Z,5.20
2023-09-09T01:43:44.770Z,4.80
2023-09-09T01:46:11.497Z,5.50
2023-09-09T01:48:38.343Z,5.90
2023-09-09T01:51:04.890Z,4.97
2023-09-09T01:53:31.410Z,5.28
2023-09-09T01:55:59.467Z,4.47
2023-09-09T01:58:26.043Z,5.18
2023-09-09T02:00:52.559Z,5.18
2023-09-09T02:03:19.192Z,4.90
2023-09-09T02:05:46.559Z,5.30
2023-09-09T02:08:13.190Z,5.47
2023-09-09T02:10:40.606Z,5.38
2023-09-09T02:13:07.224Z,5.53
2023-09-09T02:15:33.786Z,5.20
2023-09-09T02:18:00.385Z,4.18
2023-09-09T02:20:26.959Z,5.00
2023-09-09T02:22:53.490Z,4.63
2023-09-09T02:25:20.023Z,5.30
2023-09-09T02:27:46.561Z,5.78
2023-09-09T02:30:13.160Z,5.45
2023-09-09T02:32:40.161Z,4.80
2023-09-09T02:35:09.198Z,4.18
2023-09-09T02:37:36.388Z,4.88
2023-09-09T02:40:04.844Z,5.15
2023-09-09T02:42:31.366Z,4.82
2023-09-09T02:44:57.992Z,5.30
2023-09-09T02:47:24.611Z,5.35
2023-09-09T02:49:51.867Z,5.25
2023-09-09T02:52:20.180Z,5.82
2023-09-09T02:54:46.735Z,5.50
2023-09-09T02:57:13.259Z,4.90
2023-09-09T02:59:39.773Z,5.75
2023-09-09T03:02:06.863Z,5.15
2023-09-09T03:04:33.424Z,4.63
2023-09-09T03:07:00.017Z,5.50
2023-09-09T03:09:27.258Z,5.68
2023-09-09T03:11:55.106Z,4.97
2023-09-09T03:14:21.837Z,5.30
2023-09-09T03:16:48.776Z,5.25
2023-09-09T03:19:15.513Z,5.60
2023-09-09T03:21:42.085Z,5.78
2023-09-09T03:24:09.040Z,4.95
2023-09-09T03:26:35.704Z,5.35
2023-09-09T03:29:02.258Z,4.50
2023-09-09T03:31:28.865Z,4.75
2023-09-09T03:33:55.431Z,5.60
2023-09-09T03:36:21.979Z,4.57
2023-09-09T03:38:48.491Z,5.28
2023-09-09T03:41:15.086Z,5.47
2023-09-09T03:43:42.151Z,4.68
2023-09-09T03:46:09.028Z,4.50
2023-09-09T03:48:35.725Z,4.97
2023-09-09T03:51:03.792Z,5.10
2023-09-09T03:53:30.705Z,5.07
2023-09-09T03:56:00.480Z,5.63
2023-09-09T03:58:27.349Z,5.32
2023-09-09T04:01:07.311Z,4.93
2023-09-09T04:03:36.413Z,4.88
2023-09-09T04:06:07.222Z,5.07
2023-09-09T04:08:34.606Z,5.75
2023-09-09T04:11:01.360Z,5.45
2023-09-09T04:13:28.215Z,5.45
2023-09-09T04:15:55.681Z,4.85
2023-09-09T04:18:34.052Z,5.13
2023-09-09T04:21:05.143Z,5.47
2023-09-09T04:23:31.811Z,5.32
2023-09-09T04:25:58.342Z,5.50
2023-09-09T04:28:27.377Z,5.68
2023-09-09T04:30:53.927Z,5.10
2023-09-09T04:33:20.439Z,4.78
2023-09-09T04:35:46.985Z,6.53
2023-09-09T04:38:13.539Z,4.32
2023-09-09T04:40:41.878Z,5.22
2023-09-09T04:43:08.448Z,6.40
2023-09-09T04:45:35.082Z,4.80
2023-09-09T04:48:02.844Z,6.03
2023-09-09T04:50:29.625Z,5.75
2023-09-09T04:52:56.171Z,5.18
2023-09-09T04:55:22.765Z,5.03
2023-09-09T04:57:49.306Z,5.07
2023-09-09T05:00:15.950Z,5.28
2023-09-09T05:02:42.547Z,4.47
2023-09-09T05:05:10.364Z,5.03
2023-09-09T05:07:37.543Z,5.03
2023-09-09T05:10:07.943Z,4.57
2023-09-09T05:12:35.490Z,5.35
2023-09-09T05:15:02.051Z,4.47
2023-09-09T05:17:29.000Z,5.10
2023-09-09T05:19:55.771Z,5.50
2023-09-09T05:22:22.495Z,4.88
2023-09-09T05:24:49.260Z,5.10
2023-09-09T05:27:15.984Z,5.85
2023-09-09T05:29:44.243Z,4.88
2023-09-09T05:32:11.036Z,4.72
2023-09-09T05:34:37.974Z,5.03
2023-09-09T05:37:04.902Z,5.35
2023-09-09T05:39:31.585Z,5.35
2023-09-09T05:41:58.326Z,5.47
2023-09-09T05:44:25.019Z,4.90
2023-09-09T05:46:51.804Z,4.97
2023-09-09T05:49:32.025Z,5.82
2023-09-09T05:52:03.335Z,5.70
2023-09-09T05:54:30.035Z,5.25
2023-09-09T05:56:58.037Z,5.47
2023-09-09T05:59:24.910Z,5.30
2023-09-09T06:01:51.697Z,5.25
2023-09-09T06:04:18.454Z,4.90
2023-09-09T06:06:46.230Z,5.10
2023-09-09T06:09:13.196Z,6.07
2023-09-09T06:11:40.093Z,5.47
2023-09-09T06:14:06.922Z,5.35
2023-09-09T06:16:33.793Z,5.63
2023-09-09T06:19:00.569Z,5.85
2023-09-09T06:21:27.284Z,4.97
2023-09-09T06:23:53.805Z,5.40
2023-09-09T06:26:20.339Z,5.43
2023-09-09T06:28:46.890Z,5.63
2023-09-09T06:31:13.501Z,5.45
2023-09-09T06:33:43.937Z,5.55
2023-09-09T06:36:11.341Z,5.38
2023-09-09T06:38:38.007Z,5.00
2023-09-09T06:41:04.575Z,4.63
2023-09-09T06:43:31.246Z,5.55
2023-09-09T06:45:58.178Z,5.25
2023-09-09T06:48:24.992Z,5.18
2023-09-09T06:50:52.324Z,5.68
2023-09-09T06:53:19.050Z,5.53
2023-09-09T06:55:46.643Z,5.15
2023-09-09T06:58:16.338Z,5.25
2023-09-09T07:00:52.897Z,5.30
2023-09-09T07:03:20.941Z,5.35
2023-09-09T07:05:47.795Z,5.43
2023-09-09T07:08:14.454Z,5.78
2023-09-09T07:10:49.399Z,5.53
2023-09-09T07:13:15.984Z,5.70
2023-09-09T07:15:42.538Z,5.50
2023-09-09T07:18:09.249Z,5.40
2023-09-09T07:20:35.796Z,5.85
2023-09-09T07:23:02.411Z,5.93
2023-09-09T07:25:29.069Z,5.85
2023-09-09T07:27:55.650Z,5.95
2023-09-09T07:30:22.278Z,6.03
2023-09-09T07:32:48.950Z,5.25
2023-09-09T07:35:15.646Z,5.80
2023-09-09T07:37:42.690Z,5.78
2023-09-09T07:40:10.172Z,6.07
2023-09-09T07:42:36.669Z,5.13
2023-09-09T07:45:03.411Z,5.60
2023-09-09T07:47:30.172Z,5.97
2023-09-09T07:49:56.730Z,6.10
2023-09-09T07:52:24.050Z,5.53
2023-09-09T07:54:52.887Z,6.03
2023-09-09T07:57:19.411Z,5.15
2023-09-09T07:59:46.012Z,6.03
2023-09-09T08:02:14.293Z,5.30
2023-09-09T08:04:40.973Z,5.63
2023-09-09T08:07:07.528Z,5.72
2023-09-09T08:09:36.321Z,5.20
2023-09-09T08:12:02.878Z,6.78
2023-09-09T08:14:30.754Z,5.80
2023-09-09T08:16:57.544Z,5.60
2023-09-09T08:19:24.370Z,5.55
2023-09-09T08:21:51.167Z,5.47
2023-09-09T08:24:17.978Z,5.40
2023-09-09T08:26:44.690Z,6.97
2023-09-09T08:29:11.685Z,5.80
2023-09-09T08:31:38.788Z,5.38
2023-09-09T08:34:06.635Z,5.45
2023-09-09T08:36:33.558Z,5.85
2023-09-09T08:39:00.513Z,5.50
2023-09-09T08:41:42.698Z,5.22
2023-09-09T08:44:26.684Z,5.40
2023-09-09T08:46:54.401Z,5.82
2023-09-09T08:49:24.348Z,5.60
2023-09-09T08:51:58.161Z,5.05
2023-09-09T08:54:26.772Z,5.43
2023-09-09T08:56:53.868Z,5.47
2023-09-09T08:59:22.317Z,5.68
2023-09-09T09:01:50.399Z,5.53
2023-09-09T09:04:19.320Z,5.22
2023-09-09T09:06:49.422Z,4.50
2023-09-09T09:09:19.988Z,5.55
2023-09-09T09:11:46.882Z,5.30
2023-09-09T09:14:13.588Z,5.30
2023-09-09T09:16:41.834Z,4.90
2023-09-09T09:19:18.431Z,4.82
2023-09-09T09:21:45.325Z,4.50
2023-09-09T09:24:12.041Z,5.47
2023-09-09T09:26:39.033Z,4.75
2023-09-09T09:29:05.966Z,4.68
2023-09-09T09:31:33.645Z,4.97
2023-09-09T09:34:00.825Z,4.78
2023-09-09T09:36:28.298Z,5.18
2023-09-09T09:38:56.508Z,4.72
2023-09-09T09:41:23.950Z,4.95
2023-09-09T09:43:51.822Z,5.32
2023-09-09T09:46:21.210Z,5.30
2023-09-09T09:48:48.875Z,5.22
2023-09-09T09:51:15.977Z,5.32
2023-09-09T09:53:48.701Z,4.75
2023-09-09T09:56:19.562Z,4.70
2023-09-09T09:58:48.075Z,5.13
2023-09-09T10:01:15.197Z,5.05
2023-09-09T10:03:50.890Z,5.13
2023-09-09T10:06:25.943Z,5.50
2023-09-09T10:09:01.823Z,4.30
2023-09-09T10:11:32.727Z,5.00
2023-09-09T10:14:02.545Z,5.07
2023-09-09T10:16:30.616Z,4.50
2023-09-09T10:18:58.312Z,4.95
2023-09-09T10:21:41.410Z,5.20
2023-09-09T10:24:10.435Z,4.60
2023-09-09T10:26:38.459Z,4.53
2023-09-09T10:29:06.806Z,4.85
2023-09-09T10:31:43.003Z,5.05
2023-09-09T10:34:10.607Z,5.18
2023-09-09T10:36:50.770Z,4.78
2023-09-09T10:39:25.339Z,4.68
2023-09-09T10:41:53.414Z,5.03
2023-09-09T10:44:20.221Z,5.43
2023-09-09T10:46:47.669Z,4.93
2023-09-09T10:49:17.894Z,5.10
2023-09-09T10:51:52.879Z,4.88
2023-09-09T10:54:22.367Z,5.45
2023-09-09T10:56:53.996Z,5.40
2023-09-09T10:59:25.612Z,4.68
2023-09-09T11:02:11.004Z,5.10
2023-09-09T11:04:41.777Z,4.95
2023-09-09T11:07:10.855Z,4.32
2023-09-09T11:09:38.273Z,4.68
2023-09-09T11:12:13.043Z,4.65
2023-09-09T11:14:47.166Z,4.78
2023-09-09T11:17:14.737Z,4.90
2023-09-09T11:19:43.167Z,4.32
2023-09-09T11:22:11.761Z,4.40
2023-09-09T11:24:38.931Z,4.60
2023-09-09T11:27:06.922Z,4.28
2023-09-09T11:29:37.424Z,4.07
2023-09-09T11:32:11.294Z,4.10
2023-09-09T11:34:38.126Z,4.03
2023-09-09T11:37:05.714Z,3.50
2023-09-09T11:39:40.485Z,4.13
2023-09-09T11:42:07.101Z,4.60
2023-09-09T11:44:41.164Z,4.20
2023-09-09T11:47:08.689Z,4.45
2023-09-09T11:49:39.095Z,4.47
2023-09-09T11:52:05.912Z,4.50
2023-09-09T11:54:32.502Z,4.90
2023-09-09T11:57:09.440Z,4.60
2023-09-09T11:59:47.353Z,4.68
2023-09-09T12:02:25.425Z,4.20
2023-09-09T12:05:02.848Z,3.72
2023-09-09T12:07:35.185Z,4.35
2023-09-09T12:10:06.412Z,4.85
2023-09-09T12:12:33.399Z,4.07
2023-09-09T12:15:02.210Z,4.22
2023-09-09T12:17:29.332Z,5.07
2023-09-09T12:20:00.015Z,4.30
2023-09-09T12:22:54.141Z,4.30
2023-09-09T12:25:31.544Z,4.25
2023-09-09T12:27:58.551Z,4.55
2023-09-09T12:30:39.782Z,4.28
2023-09-09T12:33:14.468Z,4.13
2023-09-09T12:35:46.915Z,3.83
2023-09-09T12:38:15.793Z,4.15
2023-09-09T12:43:18.329Z,4.82
2023-09-09T12:48:15.354Z,3.88
2023-09-09T12:50:43.207Z,4.07
2023-09-09T12:53:11.772Z,4.30
2023-09-09T12:55:38.919Z,4.40
2023-09-09T12:58:05.702Z,4.40
2023-09-09T13:00:32.891Z,4.30
2023-09-09T13:02:59.702Z,4.20
2023-09-09T13:05:26.663Z,3.97
2023-09-09T13:07:53.375Z,4.20
2023-09-09T13:10:20.305Z,4.40
2023-09-09T13:12:47.449Z,4.43
2023-09-09T13:15:14.794Z,4.20
2023-09-09T13:17:41.865Z,4.00
2023-09-09T13:20:09.129Z,4.63
2023-09-09T13:22:35.973Z,4.35
2023-09-09T13:25:03.277Z,4.50
2023-09-09T13:27:30.946Z,4.20
2023-09-09T13:29:57.751Z,4.82
2023-09-09T13:32:24.540Z,3.97
2023-09-09T13:34:51.359Z,4.60
2023-09-09T13:37:18.191Z,4.05
2023-09-09T13:39:46.167Z,4.05
2023-09-09T13:42:12.952Z,4.07
2023-09-09T13:44:48.833Z,4.25
2023-09-09T13:47:26.808Z,4.43
2023-09-09T13:49:53.596Z,4.13
2023-09-09T13:52:20.468Z,4.88
2023-09-09T13:54:47.938Z,4.95
2023-09-09T13:57:14.734Z,4.68
2023-09-09T13:59:42.969Z,4.10
2023-09-09T14:02:09.965Z,4.32
2023-09-09T14:04:37.308Z,4.70
2023-09-09T14:07:04.820Z,4.80
2023-09-09T14:09:31.545Z,4.75
2023-09-09T14:11:58.301Z,4.32
2023-09-09T14:14:25.017Z,4.32
2023-09-09T14:16:51.985Z,4.63
2023-09-09T14:19:19.053Z,4.63
2023-09-09T14:21:45.763Z,4.57
2023-09-09T14:24:12.641Z,4.07
2023-09-09T14:26:39.453Z,4.65
2023-09-09T14:29:08.849Z,4.78
2023-09-09T14:31:35.578Z,4.50
2023-09-09T14:34:02.276Z,4.68
2023-09-09T14:36:29.139Z,4.32
2023-09-09T14:38:55.852Z,4.28
2023-09-09T14:41:22.604Z,4.65
2023-09-09T14:43:49.387Z,4.57
2023-09-09T14:46:16.187Z,4.45
2023-09-09T14:49:03.958Z,7.22
2023-09-09T14:51:35.333Z,4.88
2023-09-09T14:54:03.793Z,6.68
2023-09-09T14:56:31.062Z,5.72
2023-09-09T14:58:58.143Z,5.45
2023-09-09T15:01:24.784Z,4.78
2023-09-09T15:03:51.612Z,4.55
2023-09-09T15:06:18.324Z,4.80
2023-09-09T15:08:44.927Z,4.78
2023-09-09T15:11:11.471Z,4.93
2023-09-09T15:13:37.981Z,4.40
2023-09-09T15:16:06.783Z,4.82
2023-09-09T15:18:35.121Z,4.38
2023-09-09T15:21:02.591Z,5.03
2023-09-09T15:23:29.367Z,4.22
2023-09-09T15:25:55.982Z,4.78
2023-09-09T15:28:22.758Z,5.05
2023-09-09T15:30:53.679Z,4.72
2023-09-09T15:33:20.461Z,4.70
2023-09-09T15:35:47.073Z,4.70
2023-09-09T15:38:13.741Z,4.38
2023-09-09T15:40:41.549Z,4.75
2023-09-09T15:43:08.159Z,4.03
2023-09-09T15:45:34.680Z,5.20
2023-09-09T15:48:04.278Z,4.82
2023-09-09T15:50:31.065Z,4.95
2023-09-09T15:52:57.582Z,3.80
2023-09-09T15:55:24.095Z,4.30
2023-09-09T15:57:50.675Z,4.10
2023-09-09T16:00:17.366Z,4.65
2023-09-09T16:02:44.161Z,4.63
2023-09-09T16:05:10.881Z,4.90
2023-09-09T16:07:39.315Z,4.70
2023-09-09T16:10:06.834Z,4.70
2023-09-09T16:12:33.710Z,4.72
2023-09-09T16:15:00.471Z,4.60
2023-09-09T16:17:29.583Z,4.50
2023-09-09T16:19:56.961Z,5.13
2023-09-09T16:22:23.729Z,4.57
2023-09-09T16:24:50.417Z,4.95
2023-09-09T16:27:16.911Z,4.40
2023-09-09T16:29:43.479Z,4.47
2023-09-09T16:32:10.122Z,5.32
2023-09-09T16:34:36.840Z,4.32
2023-09-09T16:37:04.372Z,4.63
2023-09-09T16:39:30.923Z,4.82
2023-09-09T16:41:57.532Z,5.57
2023-09-09T16:44:24.064Z,5.25
2023-09-09T16:46:50.984Z,4.60
2023-09-09T16:49:17.680Z,4.90
2023-09-09T16:51:44.320Z,4.97
2023-09-09T16:54:11.043Z,5.22
2023-09-09T16:56:37.855Z,5.75
2023-09-09T16:59:04.750Z,4.93
2023-09-09T17:01:33.416Z,4.70
2023-09-09T17:04:00.381Z,4.65
2023-09-09T17:06:27.156Z,4.82
2023-09-09T17:08:53.871Z,5.00
2023-09-09T17:11:23.252Z,5.07
2023-09-09T17:13:50.051Z,4.20
2023-09-09T17:16:16.916Z,4.65
2023-09-09T17:18:43.758Z,4.70
2023-09-09T17:21:11.366Z,4.63
2023-09-09T17:23:38.287Z,4.95
2023-09-09T17:26:09.001Z,4.53
2023-09-09T17:28:36.150Z,5.28
2023-09-09T17:31:03.833Z,5.50
2023-09-09T17:33:30.720Z,5.20
2023-09-09T17:35:57.539Z,5.32
2023-09-09T17:38:24.263Z,5.15
2023-09-09T17:40:51.123Z,4.60
2023-09-09T17:43:17.871Z,5.00
2023-09-09T17:45:44.669Z,5.05
2023-09-09T17:48:11.505Z,4.60
2023-09-09T17:50:38.628Z,5.13
2023-09-09T17:53:05.547Z,5.32
2023-09-09T17:55:32.500Z,5.43
2023-09-09T17:57:59.289Z,5.30
2023-09-09T18:00:26.074Z,4.60
2023-09-09T18:02:52.833Z,5.30
2023-09-09T18:05:19.771Z,4.90
2023-09-09T18:07:46.630Z,5.15
2023-09-09T18:10:13.701Z,5.03
2023-09-09T18:12:40.429Z,4.72
2023-09-09T18:15:07.642Z,5.10
2023-09-09T18:17:34.554Z,4.80
2023-09-09T18:20:01.920Z,5.00
2023-09-09T18:22:28.832Z,5.00
2023-09-09T18:24:55.643Z,4.90
2023-09-09T18:27:22.394Z,5.35
2023-09-09T18:29:52.027Z,5.30
2023-09-09T18:32:18.802Z,4.68
2023-09-09T18:34:45.565Z,4.72
2023-09-09T18:37:12.394Z,5.03
2023-09-09T18:39:40.261Z,5.47
2023-09-09T18:42:07.029Z,5.50
2023-09-09T18:44:33.767Z,5.78
2023-09-09T18:47:00.684Z,5.68
2023-09-09T18:49:28.456Z,5.38
2023-09-09T18:51:56.036Z,6.10
2023-09-09T18:54:22.873Z,5.18
2023-09-09T18:56:51.676Z,5.35
2023-09-09T18:59:20.023Z,5.53
2023-09-09T19:01:47.056Z,5.55
2023-09-09T19:04:14.019Z,5.63
2023-09-09T19:06:40.832Z,5.70
2023-09-09T19:09:07.571Z,5.75
2023-09-09T19:11:34.311Z,5.43
2023-09-09T19:14:01.928Z,5.32
2023-09-09T19:16:28.777Z,4.65
2023-09-09T19:18:55.821Z,5.32
2023-09-09T19:21:24.069Z,5.70
2023-09-09T19:23:50.883Z,5.18
2023-09-09T19:26:17.625Z,5.55
2023-09-09T19:28:44.593Z,5.32
2023-09-09T19:31:12.397Z,5.45
2023-09-09T19:33:56.997Z,5.50
2023-09-09T19:36:24.026Z,5.75
2023-09-09T19:38:50.850Z,5.30
2023-09-09T19:41:17.576Z,6.10
2023-09-09T19:43:44.274Z,5.82
2023-09-09T19:46:11.067Z,5.20
2023-09-09T19:48:38.029Z,5.82
2023-09-09T19:51:04.918Z,5.38
2023-09-09T19:53:31.868Z,6.00
2023-09-09T19:55:58.655Z,6.03
2023-09-09T19:58:25.581Z,6.07
2023-09-09T20:00:52.441Z,5.60
2023-09-09T20:03:19.295Z,5.13
2023-09-09T20:05:50.035Z,5.97
2023-09-09T20:08:16.718Z,5.60
2023-09-09T20:10:46.394Z,6.65
2023-09-09T20:13:13.164Z,5.80
2023-09-09T20:15:40.279Z,5.75
2023-09-09T20:18:09.941Z,5.40
2023-09-09T20:20:39.477Z,5.47
2023-09-09T20:23:06.253Z,6.18
2023-09-09T20:25:33.018Z,5.75
2023-09-09T20:27:59.766Z,5.93
2023-09-09T20:30:26.953Z,5.80
2023-09-09T20:32:53.847Z,5.72
2023-09-09T20:37:52.735Z,5.85
2023-09-09T20:40:21.930Z,4.97
2023-09-09T20:45:24.960Z,5.50
2023-09-09T20:47:52.467Z,5.82
2023-09-09T20:50:22.502Z,6.10
2023-09-09T20:52:50.791Z,5.18
2023-09-09T20:55:19.129Z,5.57
2023-09-09T20:57:46.015Z,5.88
2023-09-09T21:00:14.408Z,5.93
2023-09-09T21:02:43.243Z,5.45
2023-09-09T21:05:10.141Z,5.68
2023-09-09T21:07:37.004Z,4.93
2023-09-09T21:10:07.518Z,5.35
2023-09-09T21:12:34.228Z,5.80
2023-09-09T21:15:01.204Z,5.88
2023-09-09T21:17:28.102Z,5.90
2023-09-09T21:19:55.874Z,5.80
2023-09-09T21:22:23.061Z,5.97
2023-09-09T21:24:49.812Z,6.35
2023-09-09T21:27:16.570Z,6.13
2023-09-09T21:29:43.322Z,5.57
2023-09-09T21:32:10.208Z,5.82
2023-09-09T21:34:37.139Z,6.18
2023-09-09T21:37:04.536Z,7.00
2023-09-09T21:39:31.604Z,6.30
2023-09-09T21:41:58.336Z,6.60
2023-09-09T21:44:25.039Z,6.30
2023-09-09T21:46:51.873Z,7.05
2023-09-09T21:49:18.693Z,6.88
2023-09-09T21:51:46.698Z,6.38
2023-09-09T21:54:13.425Z,5.65
2023-09-09T21:56:40.154Z,6.13
2023-09-09T21:59:06.857Z,6.50
2023-09-09T22:01:33.650Z,6.50
2023-09-09T22:04:00.427Z,6.03
2023-09-09T22:06:27.253Z,6.07
2023-09-09T22:08:54.008Z,5.97
2023-09-09T22:11:20.705Z,6.55
2023-09-09T22:13:47.438Z,5.97
2023-09-09T22:16:14.471Z,7.00
2023-09-09T22:18:41.913Z,6.10
2023-09-09T22:21:09.060Z,5.93
2023-09-09T22:23:36.215Z,5.55
2023-09-09T22:26:05.051Z,5.47
2023-09-09T22:28:34.087Z,6.45
2023-09-09T22:31:00.833Z,6.38
2023-09-09T22:33:27.544Z,5.45
2023-09-09T22:35:54.381Z,6.88
2023-09-09T22:38:21.115Z,6.03
2023-09-09T22:40:47.891Z,6.45
2023-09-09T22:43:23.670Z,6.30
2023-09-09T22:45:50.436Z,6.10
2023-09-09T22:48:17.198Z,6.60
2023-09-09T22:50:43.905Z,5.82
2023-09-09T22:53:10.675Z,6.38
2023-09-09T22:55:37.466Z,5.97
2023-09-09T22:58:04.434Z,6.63
2023-09-09T23:00:31.412Z,7.28
2023-09-09T23:02:58.868Z,7.28
2023-09-09T23:05:26.690Z,7.63
2023-09-09T23:07:53.378Z,6.13
2023-09-09T23:10:20.450Z,6.25
2023-09-09T23:12:47.089Z,6.10
2023-09-09T23:15:13.604Z,7.47
2023-09-09T23:17:40.141Z,6.50
2023-09-09T23:20:07.254Z,7.10
2023-09-09T23:22:33.877Z,6.95
2023-09-09T23:25:00.608Z,6.80
2023-09-09T23:27:27.250Z,7.18
2023-09-09T23:29:53.766Z,7.68
2023-09-09T23:32:20.454Z,5.95
2023-09-09T23:34:47.450Z,6.38
2023-09-09T23:37:14.034Z,6.63
2023-09-09T23:39:40.533Z,6.90
2023-09-09T23:42:07.169Z,7.07
2023-09-09T23:44:33.693Z,7.65
2023-09-09T23:47:00.309Z,7.03
2023-09-09T23:49:26.923Z,8.02
2023-09-09T23:51:53.413Z,7.82
2023-09-09T23:54:19.963Z,8.10
2023-09-09T23:56:46.547Z,7.65
2023-09-09T23:59:13.231Z,7.05
